createdAt,value
2018-08-28T00:00:04.843Z,101319.48
2018-08-28T00:02:34.565Z,101324.48
2018-08-28T00:05:04.411Z,101330.15
2018-08-28T00:07:34.150Z,101339.80
2018-08-28T00:10:03.757Z,101347.80
2018-08-28T00:12:33.364Z,101346.47
2018-08-28T00:15:03.179Z,101352.86
2018-08-28T00:17:32.890Z,101351.36
2018-08-28T00:20:02.823Z,101355.22
2018-08-28T00:22:32.398Z,101347.00
2018-08-28T00:25:01.932Z,101353.19
2018-08-28T00:27:31.367Z,101361.16
2018-08-28T00:30:00.806Z,101356.20
2018-08-28T00:32:30.731Z,101365.45
2018-08-28T00:35:00.981Z,101363.98
2018-08-28T00:37:31.282Z,101361.89
2018-08-28T00:40:01.260Z,101369.55
2018-08-28T00:42:30.930Z,101366.95
2018-08-28T00:45:00.357Z,101366.43
2018-08-28T00:47:30.310Z,101372.28
2018-08-28T00:49:59.627Z,101368.52
2018-08-28T00:52:29.235Z,101367.38
2018-08-28T00:54:58.488Z,101372.16
2018-08-28T00:57:27.850Z,101369.33
2018-08-28T00:59:57.418Z,101366.97
2018-08-28T01:02:26.744Z,101363.10
2018-08-28T01:04:56.064Z,101371.54
2018-08-28T01:07:25.617Z,101381.11
2018-08-28T01:09:54.928Z,101379.80
2018-08-28T01:12:24.253Z,101382.34
2018-08-28T01:14:53.567Z,101384.04
2018-08-28T01:17:22.906Z,101385.06
2018-08-28T01:19:52.234Z,101386.29
2018-08-28T01:22:21.595Z,101391.66
2018-08-28T01:24:51.002Z,101392.80
2018-08-28T01:27:20.343Z,101393.69
2018-08-28T01:29:50.219Z,101397.79
2018-08-28T01:32:19.642Z,101397.80
2018-08-28T01:34:48.960Z,101400.54
2018-08-28T01:37:18.423Z,101402.97
2018-08-28T01:39:47.764Z,101407.88
2018-08-28T01:42:22.756Z,101405.72
2018-08-28T01:44:52.466Z,101412.61
2018-08-28T01:47:22.568Z,101410.73
2018-08-28T01:49:52.547Z,101420.59
2018-08-28T01:52:22.130Z,101422.67
2018-08-28T01:54:51.475Z,101420.36
2018-08-28T01:57:20.830Z,101429.94
2018-08-28T01:59:50.212Z,101428.90
2018-08-28T02:02:20.216Z,101431.34
2018-08-28T02:04:49.602Z,101434.38
2018-08-28T02:07:18.936Z,101430.92
2018-08-28T02:09:48.228Z,101428.61
2018-08-28T02:12:17.808Z,101422.90
2018-08-28T02:14:47.160Z,101430.07
2018-08-28T02:17:16.519Z,101422.24
2018-08-28T02:19:45.848Z,101424.17
2018-08-28T02:22:15.188Z,101434.47
2018-08-28T02:24:44.663Z,101434.32
2018-08-28T02:27:14.131Z,101435.22
2018-08-28T02:29:43.528Z,101441.47
2018-08-28T02:32:12.895Z,101434.08
2018-08-28T02:34:44.222Z,101443.83
2018-08-28T02:37:13.583Z,101444.48
2018-08-28T02:39:42.942Z,101437.14
2018-08-28T02:42:12.386Z,101442.83
2018-08-28T02:44:41.692Z,101446.03
2018-08-28T02:47:11.042Z,101444.22
2018-08-28T02:49:40.455Z,101439.88
2018-08-28T02:52:09.781Z,101439.50
2018-08-28T02:54:39.119Z,101446.41
2018-08-28T02:57:08.963Z,101442.09
2018-08-28T02:59:38.372Z,101449.03
2018-08-28T03:02:07.774Z,101443.64
2018-08-28T03:04:37.169Z,101448.41
2018-08-28T03:07:06.574Z,101452.50
2018-08-28T03:09:36.063Z,101452.23
2018-08-28T03:12:05.556Z,101458.83
2018-08-28T03:14:35.016Z,101453.91
2018-08-28T03:17:04.396Z,101465.06
2018-08-28T03:19:34.029Z,101469.42
2018-08-28T03:22:03.304Z,101459.37
2018-08-28T03:24:32.602Z,101469.20
2018-08-28T03:27:01.929Z,101472.33
2018-08-28T03:29:31.251Z,101473.73
2018-08-28T03:32:00.598Z,101478.53
2018-08-28T03:34:29.932Z,101477.86
2018-08-28T03:36:59.258Z,101480.41
2018-08-28T03:39:28.563Z,101482.66
2018-08-28T03:41:58.278Z,101486.73
2018-08-28T03:44:27.600Z,101497.15
2018-08-28T03:46:56.957Z,101493.05
2018-08-28T03:49:26.395Z,101498.20
2018-08-28T03:51:55.682Z,101498.49
2018-08-28T03:54:25.120Z,101495.03
2018-08-28T03:56:54.595Z,101499.03
2018-08-28T03:59:23.877Z,101497.77
2018-08-28T04:01:53.248Z,101504.27
2018-08-28T04:04:23.202Z,101509.09
2018-08-28T04:06:52.571Z,101513.98
2018-08-28T04:09:21.930Z,101516.80
2018-08-28T04:11:51.302Z,101521.33
2018-08-28T04:14:20.710Z,101517.92
2018-08-28T04:16:50.079Z,101526.19
2018-08-28T04:19:19.414Z,101526.21
2018-08-28T04:21:48.694Z,101527.58
2018-08-28T04:24:18.008Z,101525.34
2018-08-28T04:26:47.716Z,101527.84
2018-08-28T04:29:17.104Z,101532.75
2018-08-28T04:31:46.394Z,101540.34
2018-08-28T04:34:15.737Z,101542.84
2018-08-28T04:36:45.037Z,101544.86
2018-08-28T04:39:14.389Z,101548.29
2018-08-28T04:41:43.957Z,101552.75
2018-08-28T04:44:13.351Z,101557.16
2018-08-28T04:46:42.708Z,101568.38
2018-08-28T04:49:12.453Z,101565.13
2018-08-28T04:51:41.807Z,101568.02
2018-08-28T04:54:11.290Z,101563.53
2018-08-28T04:56:40.692Z,101561.52
2018-08-28T04:59:10.061Z,101567.62
2018-08-28T05:01:39.479Z,101570.00
2018-08-28T05:04:08.824Z,101568.73
2018-08-28T05:06:38.363Z,101573.94
2018-08-28T05:09:08.224Z,101572.97
2018-08-28T05:11:38.009Z,101582.84
2018-08-28T05:14:07.526Z,101575.91
2018-08-28T05:16:36.931Z,101583.90
2018-08-28T05:19:06.482Z,101583.75
2018-08-28T05:21:36.070Z,101588.48
2018-08-28T05:24:05.412Z,101586.94
2018-08-28T05:26:35.051Z,101597.66
2018-08-28T05:29:04.384Z,101590.64
2018-08-28T05:31:33.727Z,101593.00
2018-08-28T05:34:04.364Z,101597.73
2018-08-28T05:36:33.766Z,101601.59
2018-08-28T05:39:03.242Z,101603.03
2018-08-28T05:41:32.599Z,101606.66
2018-08-28T05:44:01.949Z,101615.90
2018-08-28T05:46:31.299Z,101620.56
2018-08-28T05:49:00.809Z,101627.69
2018-08-28T05:51:30.167Z,101627.19
2018-08-28T05:53:59.813Z,101620.88
2018-08-28T05:56:29.269Z,101617.80
2018-08-28T05:58:58.640Z,101624.23
2018-08-28T06:01:27.956Z,101629.52
2018-08-28T06:03:57.290Z,101627.58
2018-08-28T06:06:26.666Z,101624.27
2018-08-28T06:08:56.050Z,101632.32
2018-08-28T06:11:25.425Z,101631.28
2018-08-28T06:13:54.773Z,101637.03
2018-08-28T06:16:24.233Z,101640.33
2018-08-28T06:18:53.963Z,101638.69
2018-08-28T06:21:23.339Z,101638.69
2018-08-28T06:23:52.690Z,101636.55
2018-08-28T06:26:22.105Z,101643.92
2018-08-28T06:28:51.548Z,101646.13
2018-08-28T06:31:20.981Z,101650.52
2018-08-28T06:33:50.405Z,101649.77
2018-08-28T06:36:19.989Z,101643.80
2018-08-28T06:38:49.331Z,101651.07
2018-08-28T06:41:18.955Z,101656.02
2018-08-28T06:43:48.275Z,101655.52
2018-08-28T06:46:17.622Z,101651.64
2018-08-28T06:48:47.000Z,101655.56
2018-08-28T06:51:16.420Z,101657.27
2018-08-28T06:53:45.837Z,101658.70
2018-08-28T06:56:15.550Z,101652.34
2018-08-28T06:58:44.912Z,101658.22
2018-08-28T07:01:14.236Z,101663.02
2018-08-28T07:03:43.823Z,101662.31
2018-08-28T07:06:13.186Z,101656.48
2018-08-28T07:08:42.523Z,101661.89
2018-08-28T07:11:11.910Z,101662.63
2018-08-28T07:13:41.246Z,101665.24
2018-08-28T07:16:10.594Z,101659.47
2018-08-28T07:18:40.049Z,101663.39
2018-08-28T07:21:09.333Z,101659.87
2018-08-28T07:23:38.788Z,101660.70
2018-08-28T07:26:08.700Z,101666.76
2018-08-28T07:28:38.072Z,101669.19
2018-08-28T07:31:07.449Z,101670.05
2018-08-28T07:33:36.813Z,101673.49
2018-08-28T07:36:06.210Z,101672.39
2018-08-28T07:38:35.597Z,101672.73
2018-08-28T07:41:04.995Z,101674.59
2018-08-28T07:43:34.326Z,101677.63
2018-08-28T07:46:03.833Z,101672.92
2018-08-28T07:48:33.584Z,101675.55
2018-08-28T07:51:03.042Z,101674.98
2018-08-28T07:53:33.645Z,101674.91
2018-08-28T07:56:03.026Z,101677.77
2018-08-28T07:58:32.384Z,101680.64
2018-08-28T08:01:01.855Z,101685.88
2018-08-28T08:03:31.195Z,101687.52
2018-08-28T08:06:00.863Z,101689.42
2018-08-28T08:08:30.646Z,101693.25
2018-08-28T08:11:00.034Z,101691.13
2018-08-28T08:13:29.426Z,101692.64
2018-08-28T08:15:58.929Z,101689.02
2018-08-28T08:18:28.427Z,101695.61
2018-08-28T08:20:57.765Z,101697.51
2018-08-28T08:23:27.161Z,101699.53
2018-08-28T08:25:56.499Z,101704.52
2018-08-28T08:28:26.137Z,101703.28
2018-08-28T08:30:55.742Z,101712.19
2018-08-28T08:33:25.135Z,101710.03
2018-08-28T08:35:54.470Z,101708.89
2018-08-28T08:38:23.903Z,101718.52
2018-08-28T08:40:53.292Z,101713.05
2018-08-28T08:43:22.644Z,101702.69
2018-08-28T08:45:52.041Z,101701.06
2018-08-28T08:48:21.477Z,101705.34
2018-08-28T08:50:50.869Z,101707.19
2018-08-28T08:53:20.356Z,101701.72
2018-08-28T08:55:49.691Z,101697.98
2018-08-28T08:58:19.529Z,101704.04
2018-08-28T09:00:48.912Z,101696.30
2018-08-28T09:03:18.377Z,101698.47
2018-08-28T09:05:47.775Z,101702.56
2018-08-28T09:08:17.059Z,101701.88
2018-08-28T09:10:46.371Z,101701.33
2018-08-28T09:13:15.782Z,101698.80
2018-08-28T09:15:45.489Z,101703.29
2018-08-28T09:18:14.845Z,101704.48
2018-08-28T09:20:44.202Z,101705.48
2018-08-28T09:23:13.592Z,101704.67
2018-08-28T09:25:42.897Z,101708.87
2018-08-28T09:28:12.188Z,101708.27
2018-08-28T09:30:41.703Z,101711.63
2018-08-28T09:33:11.030Z,101715.91
2018-08-28T09:35:40.829Z,101709.16
2018-08-28T09:38:10.624Z,101721.25
2018-08-28T09:40:39.955Z,101720.52
2018-08-28T09:43:09.365Z,101721.56
2018-08-28T09:45:38.767Z,101724.80
2018-08-28T09:48:08.318Z,101713.55
2018-08-28T09:50:37.662Z,101719.31
2018-08-28T09:53:07.005Z,101725.31
2018-08-28T09:55:36.809Z,101725.23
2018-08-28T09:58:06.417Z,101729.94
2018-08-28T10:00:42.011Z,101729.02
2018-08-28T10:03:11.402Z,101733.09
2018-08-28T10:05:40.773Z,101732.78
2018-08-28T10:08:10.199Z,101728.55
2018-08-28T10:10:39.509Z,101726.61
2018-08-28T10:13:08.939Z,101740.39
2018-08-28T10:15:38.312Z,101723.62
2018-08-28T10:18:07.407Z,101730.62
2018-08-28T10:20:36.910Z,101731.97
2018-08-28T10:23:06.863Z,101737.98
2018-08-28T10:25:36.263Z,101736.70
2018-08-28T10:28:06.047Z,101737.93
2018-08-28T10:30:35.399Z,101731.05
2018-08-28T10:33:05.297Z,101731.14
2018-08-28T10:35:34.703Z,101727.00
2018-08-28T10:38:04.154Z,101735.27
2018-08-28T10:40:33.482Z,101734.22
2018-08-28T10:43:02.839Z,101735.19
2018-08-28T10:45:32.401Z,101738.41
2018-08-28T10:48:01.728Z,101739.17
2018-08-28T10:50:31.292Z,101729.95
2018-08-28T10:53:00.827Z,101734.50
2018-08-28T10:55:30.085Z,101741.83
2018-08-28T10:57:59.486Z,101733.52
2018-08-28T11:00:28.908Z,101741.22
2018-08-28T11:02:58.327Z,101747.95
2018-08-28T11:05:27.695Z,101746.71
2018-08-28T11:07:57.519Z,101751.78
2018-08-28T11:10:26.836Z,101753.02
2018-08-28T11:12:56.247Z,101746.72
2018-08-28T11:15:26.015Z,101756.68
2018-08-28T11:17:55.530Z,101753.53
2018-08-28T11:20:24.872Z,101761.80
2018-08-28T11:22:54.587Z,101746.70
2018-08-28T11:25:24.585Z,101761.20
2018-08-28T11:27:53.920Z,101755.47
2018-08-28T11:30:23.711Z,101759.31
2018-08-28T11:32:53.274Z,101758.71
2018-08-28T11:35:22.748Z,101757.44
2018-08-28T11:37:52.228Z,101749.59
2018-08-28T11:40:21.584Z,101757.83
2018-08-28T11:42:50.946Z,101757.18
2018-08-28T11:45:20.419Z,101753.17
2018-08-28T11:47:49.922Z,101753.68
2018-08-28T11:50:19.290Z,101758.18
2018-08-28T11:52:49.305Z,101757.12
2018-08-28T11:55:18.843Z,101754.52
2018-08-28T11:57:48.180Z,101759.29
2018-08-28T12:00:17.925Z,101769.05
2018-08-28T12:02:47.253Z,101761.25
2018-08-28T12:05:16.767Z,101765.44
2018-08-28T12:07:46.201Z,101759.45
2018-08-28T12:10:15.590Z,101758.17
2018-08-28T12:12:45.143Z,101764.06
2018-08-28T12:15:15.036Z,101758.56
2018-08-28T12:17:44.437Z,101761.30
2018-08-28T12:20:13.918Z,101759.92
2018-08-28T12:22:43.637Z,101759.48
2018-08-28T12:25:12.987Z,101752.67
2018-08-28T12:27:42.352Z,101754.27
2018-08-28T12:30:12.189Z,101755.34
2018-08-28T12:32:41.587Z,101754.50
2018-08-28T12:35:11.037Z,101755.58
2018-08-28T12:37:40.651Z,101756.00
2018-08-28T12:40:10.036Z,101759.69
2018-08-28T12:42:39.402Z,101757.30
2018-08-28T12:45:08.809Z,101758.03
2018-08-28T12:47:39.380Z,101757.94
2018-08-28T12:50:09.762Z,101759.81
2018-08-28T12:52:39.231Z,101761.32
2018-08-28T12:55:08.906Z,101763.19
2018-08-28T12:57:38.544Z,101762.42
2018-08-28T13:00:08.017Z,101766.02
2018-08-28T13:02:37.562Z,101760.73
2018-08-28T13:05:06.937Z,101762.11
2018-08-28T13:07:36.405Z,101763.49
2018-08-28T13:10:05.754Z,101757.95
2018-08-28T13:12:35.104Z,101755.42
2018-08-28T13:15:04.475Z,101749.52
2018-08-28T13:17:33.776Z,101752.93
2018-08-28T13:20:03.547Z,101748.45
2018-08-28T13:22:32.841Z,101755.26
2018-08-28T13:25:02.153Z,101756.27
2018-08-28T13:27:31.511Z,101748.09
2018-08-28T13:30:00.843Z,101752.80
2018-08-28T13:32:30.180Z,101757.58
2018-08-28T13:34:59.657Z,101751.13
2018-08-28T13:37:29.093Z,101749.02
2018-08-28T13:39:58.638Z,101749.41
2018-08-28T13:42:28.173Z,101746.94
2018-08-28T13:44:57.534Z,101744.89
2018-08-28T13:47:26.952Z,101746.45
2018-08-28T13:49:56.340Z,101744.36
2018-08-28T13:52:25.670Z,101740.91
2018-08-28T13:54:55.003Z,101746.80
2018-08-28T13:57:24.606Z,101747.67
2018-08-28T13:59:54.023Z,101743.36
2018-08-28T14:02:23.435Z,101750.41
2018-08-28T14:04:53.129Z,101750.75
2018-08-28T14:07:22.539Z,101756.06
2018-08-28T14:09:51.827Z,101757.18
2018-08-28T14:12:21.401Z,101758.78
2018-08-28T14:14:51.297Z,101761.07
2018-08-28T14:17:20.540Z,101751.82
2018-08-28T14:19:50.047Z,101757.32
2018-08-28T14:22:19.494Z,101755.03
2018-08-28T14:24:48.802Z,101756.34
2018-08-28T14:27:18.944Z,101755.07
2018-08-28T14:29:48.274Z,101753.09
2018-08-28T14:32:17.917Z,101757.23
2018-08-28T14:34:47.329Z,101748.61
2018-08-28T14:37:16.676Z,101754.52
2018-08-28T14:39:45.977Z,101756.56
2018-08-28T14:42:15.366Z,101747.55
2018-08-28T14:44:44.767Z,101748.13
2018-08-28T14:47:14.263Z,101743.11
2018-08-28T14:49:44.069Z,101738.78
2018-08-28T14:52:13.381Z,101735.32
2018-08-28T14:54:42.822Z,101740.52
2018-08-28T14:57:12.284Z,101729.97
2018-08-28T14:59:41.621Z,101728.13
2018-08-28T15:02:10.918Z,101730.53
2018-08-28T15:04:40.303Z,101723.27
2018-08-28T15:07:09.722Z,101721.23
2018-08-28T15:09:38.929Z,101719.18
2018-08-28T15:12:08.612Z,101714.81
2018-08-28T15:14:37.940Z,101722.34
2018-08-28T15:17:07.365Z,101716.62
2018-08-28T15:19:36.699Z,101711.48
2018-08-28T15:22:06.011Z,101714.30
2018-08-28T15:24:35.344Z,101709.34
2018-08-28T15:27:05.036Z,101714.36
2018-08-28T15:29:34.345Z,101709.34
2018-08-28T15:32:03.784Z,101712.72
2018-08-28T15:34:34.360Z,101715.14
2018-08-28T15:37:03.697Z,101709.14
2018-08-28T15:39:33.109Z,101712.88
2018-08-28T15:42:02.563Z,101708.01
2018-08-28T15:44:31.990Z,101716.75
2018-08-28T15:47:01.374Z,101719.28
2018-08-28T15:49:30.775Z,101717.98
2018-08-28T15:52:00.323Z,101715.33
2018-08-28T15:54:30.613Z,101719.95
2018-08-28T15:57:00.441Z,101715.59
2018-08-28T15:59:29.865Z,101713.02
2018-08-28T16:01:59.378Z,101710.94
2018-08-28T16:04:28.894Z,101710.39
2018-08-28T16:06:58.320Z,101720.80
2018-08-28T16:09:27.612Z,101718.46
2018-08-28T16:11:57.051Z,101717.42
2018-08-28T16:14:26.558Z,101711.11
2018-08-28T16:16:55.861Z,101711.48
2018-08-28T16:19:25.768Z,101714.22
2018-08-28T16:21:57.096Z,101712.48
2018-08-28T16:24:26.507Z,101710.92
2018-08-28T16:26:56.373Z,101708.54
2018-08-28T16:29:25.903Z,101718.19
2018-08-28T16:31:55.312Z,101712.21
2018-08-28T16:34:24.681Z,101714.58
2018-08-28T16:36:54.102Z,101708.84
2018-08-28T16:39:23.523Z,101712.82
2018-08-28T16:41:52.829Z,101710.50
2018-08-28T16:44:22.223Z,101719.03
2018-08-28T16:46:51.675Z,101717.64
2018-08-28T16:49:20.927Z,101712.00
2018-08-28T16:51:50.387Z,101711.51
2018-08-28T16:54:19.857Z,101714.94
2018-08-28T16:56:52.541Z,101714.77
2018-08-28T16:59:22.516Z,101712.53
2018-08-28T17:01:51.880Z,101710.83
2018-08-28T17:04:21.223Z,101711.64
2018-08-28T17:06:50.734Z,101710.77
2018-08-28T17:09:20.122Z,101708.01
2018-08-28T17:11:49.463Z,101707.94
2018-08-28T17:14:18.863Z,101705.61
2018-08-28T17:16:48.237Z,101703.91
2018-08-28T17:19:18.674Z,101703.93
2018-08-28T17:21:48.198Z,101698.09
2018-08-28T17:24:17.507Z,101696.09
2018-08-28T17:26:46.966Z,101694.41
2018-08-28T17:29:16.305Z,101695.78
2018-08-28T17:31:45.645Z,101698.55
2018-08-28T17:34:14.983Z,101692.42
2018-08-28T17:36:44.307Z,101699.92
2018-08-28T17:39:13.641Z,101708.59
2018-08-28T17:41:43.189Z,101708.91
2018-08-28T17:44:12.659Z,101712.13
2018-08-28T17:46:41.985Z,101714.05
2018-08-28T17:49:11.374Z,101711.76
2018-08-28T17:51:40.627Z,101722.28
2018-08-28T17:54:10.068Z,101717.13
2018-08-28T17:56:39.425Z,101724.27
2018-08-28T17:59:08.800Z,101724.39
2018-08-28T18:01:38.486Z,101726.64
2018-08-28T18:04:07.905Z,101727.62
2018-08-28T18:06:37.515Z,101725.61
2018-08-28T18:09:07.430Z,101730.03
2018-08-28T18:11:36.784Z,101726.77
2018-08-28T18:14:06.234Z,101728.14
2018-08-28T18:16:35.600Z,101734.07
2018-08-28T18:19:04.981Z,101734.77
2018-08-28T18:21:34.768Z,101735.28
2018-08-28T18:24:04.229Z,101735.05
2018-08-28T18:26:33.523Z,101741.23
2018-08-28T18:29:03.179Z,101744.30
2018-08-28T18:31:32.504Z,101744.88
2018-08-28T18:34:02.176Z,101755.37
2018-08-28T18:36:31.576Z,101751.48
2018-08-28T18:39:00.992Z,101746.78
2018-08-28T18:41:30.408Z,101754.08
2018-08-28T18:43:59.889Z,101756.80
2018-08-28T18:46:29.202Z,101757.67
2018-08-28T18:48:58.560Z,101748.66
2018-08-28T18:51:28.558Z,101749.63
2018-08-28T18:53:58.146Z,101748.56
2018-08-28T18:56:27.582Z,101743.23
2018-08-28T18:58:57.083Z,101745.34
2018-08-28T19:01:26.470Z,101738.92
2018-08-28T19:03:56.565Z,101742.25
2018-08-28T19:06:25.942Z,101744.93
2018-08-28T19:08:55.432Z,101748.29
2018-08-28T19:11:24.750Z,101750.62
2018-08-28T19:13:54.285Z,101750.34
2018-08-28T19:16:23.684Z,101756.06
2018-08-28T19:18:53.123Z,101756.91
2018-08-28T19:21:22.630Z,101757.86
2018-08-28T19:23:52.851Z,101752.35
2018-08-28T19:26:22.257Z,101751.39
2018-08-28T19:28:51.820Z,101751.08
2018-08-28T19:31:21.221Z,101757.97
2018-08-28T19:33:51.514Z,101745.88
2018-08-28T19:36:23.625Z,101746.05
2018-08-28T19:38:54.430Z,101748.91
2018-08-28T19:41:24.224Z,101747.22
2018-08-28T19:43:54.159Z,101740.44
2018-08-28T19:46:23.977Z,101741.53
2018-08-28T19:48:53.474Z,101747.89
2018-08-28T19:51:23.150Z,101749.59
2018-08-28T19:53:52.772Z,101755.21
2018-08-28T19:56:22.389Z,101751.68
2018-08-28T19:58:51.876Z,101744.78
2018-08-28T20:01:21.324Z,101742.14
2018-08-28T20:03:51.191Z,101743.81
2018-08-28T20:06:21.116Z,101741.17
2018-08-28T20:08:50.717Z,101746.47
2018-08-28T20:11:20.676Z,101743.50
2018-08-28T20:13:50.217Z,101735.03
2018-08-28T20:16:20.280Z,101737.05
2018-08-28T20:18:50.419Z,101736.18
2018-08-28T20:21:20.055Z,101733.20
2018-08-28T20:23:49.714Z,101730.55
2018-08-28T20:26:19.652Z,101730.76
2018-08-28T20:28:49.039Z,101730.44
2018-08-28T20:31:18.871Z,101727.57
2018-08-28T20:33:48.562Z,101727.16
2018-08-28T20:36:18.293Z,101726.11
2018-08-28T20:38:47.903Z,101724.11
2018-08-28T20:41:17.863Z,101719.97
2018-08-28T20:43:47.487Z,101727.72
2018-08-28T20:46:16.992Z,101725.70
2018-08-28T20:48:46.559Z,101732.45
2018-08-28T20:51:16.297Z,101725.86
2018-08-28T20:53:45.990Z,101725.63
2018-08-28T20:56:15.861Z,101720.00
2018-08-28T20:58:45.596Z,101720.35
2018-08-28T21:01:15.437Z,101713.16
2018-08-28T21:03:45.117Z,101716.13
2018-08-28T21:06:14.805Z,101716.41
2018-08-28T21:08:44.874Z,101706.86
2018-08-28T21:11:14.756Z,101716.34
2018-08-28T21:13:44.088Z,101713.69
2018-08-28T21:16:13.490Z,101705.87
2018-08-28T21:18:42.996Z,101700.98
2018-08-28T21:21:12.558Z,101696.33
2018-08-28T21:23:41.904Z,101692.89
2018-08-28T21:26:11.381Z,101691.80
2018-08-28T21:28:40.906Z,101697.52
2018-08-28T21:31:10.232Z,101697.06
2018-08-28T21:33:39.762Z,101686.06
2018-08-28T21:36:09.157Z,101687.09
2018-08-28T21:38:38.530Z,101686.77
2018-08-28T21:41:07.925Z,101684.62
2018-08-28T21:43:37.656Z,101682.59
2018-08-28T21:46:07.045Z,101687.09
2018-08-28T21:48:37.583Z,101689.27
2018-08-28T21:51:07.131Z,101679.92
2018-08-28T21:53:36.551Z,101680.11
2018-08-28T21:56:06.515Z,101677.33
2018-08-28T21:58:35.849Z,101683.30
2018-08-28T22:01:13.651Z,101681.53
2018-08-28T22:03:43.124Z,101679.13
2018-08-28T22:06:18.242Z,101687.77
2018-08-28T22:08:47.681Z,101686.42
2018-08-28T22:11:17.122Z,101686.48
2018-08-28T22:13:46.648Z,101681.83
2018-08-28T22:16:15.976Z,101680.33
2018-08-28T22:18:45.286Z,101678.05
2018-08-28T22:21:14.911Z,101677.45
2018-08-28T22:23:44.582Z,101677.55
2018-08-28T22:26:14.914Z,101670.59
2018-08-28T22:28:44.996Z,101675.50
2018-08-28T22:31:14.342Z,101676.61
2018-08-28T22:33:43.863Z,101680.39
2018-08-28T22:36:13.772Z,101676.44
2018-08-28T22:38:43.187Z,101682.47
2018-08-28T22:41:12.526Z,101677.83
2018-08-28T22:43:41.905Z,101673.11
2018-08-28T22:46:11.257Z,101675.73
2018-08-28T22:48:40.790Z,101675.62
2018-08-28T22:51:11.089Z,101671.17
2018-08-28T22:53:40.591Z,101675.81
2018-08-28T22:56:10.092Z,101680.13
2018-08-28T22:58:39.505Z,101673.27
2018-08-28T23:01:09.048Z,101670.52
2018-08-28T23:03:38.393Z,101667.20
2018-08-28T23:06:07.699Z,101662.91
2018-08-28T23:08:37.015Z,101665.34
2018-08-28T23:11:06.384Z,101663.19
2018-08-28T23:13:35.978Z,101667.94
2018-08-28T23:16:05.352Z,101663.80
2018-08-28T23:18:34.726Z,101664.56
2018-08-28T23:21:04.387Z,101660.40
2018-08-28T23:23:33.701Z,101659.49
2018-08-28T23:26:03.115Z,101658.15
2018-08-28T23:28:32.423Z,101659.12
2018-08-28T23:31:01.994Z,101655.12
2018-08-28T23:33:31.469Z,101654.65
2018-08-28T23:36:02.243Z,101648.13
2018-08-28T23:38:31.594Z,101650.16
2018-08-28T23:41:00.907Z,101652.81
2018-08-28T23:43:30.177Z,101649.92
2018-08-28T23:45:59.496Z,101652.39
2018-08-28T23:48:28.845Z,101647.99
2018-08-28T23:50:58.175Z,101653.05
2018-08-28T23:53:27.477Z,101642.52
2018-08-28T23:55:56.775Z,101639.82
2018-08-28T23:58:26.192Z,101644.73
